Flight Track Log - Related Links

Times and Time Zones

All times are in EDT time to prevent confusion due to time zone crossing. See the C-GMOT flight status page for this flight to view local times or setup timezone preferences in your user account.

Time Position Orientation Groundspeed Altitude Reporting Facility
EDT Latitude Longitude Course Direction KTS MPH feet Rate Location/Type
Tue 02:17:07 PM 46.0667 -71.9833 270° West 110 127 1,900  Level Montreal Center
Tue 02:18:07 PM 46.0667 -72.0333 270° West 110 127 2,900 800 Climbing Montreal Center
Tue 02:19:07 PM 46.0667 -72.0500 270° West 110 127 3,500 650 Climbing Montreal Center
Tue 02:20:07 PM 46.0667 -72.1000 270° West 120 138 4,200 700 Climbing Montreal Center
Tue 02:21:07 PM 46.0500 -72.1500 244° Southwest 120 138 4,900 700 Climbing Montreal Center
Tue 02:22:07 PM 46.0500 -72.2000 270° West 130 150 5,600 700 Climbing Montreal Center
Tue 02:23:07 PM 46.0333 -72.2500 244° Southwest 130 150 6,300 700 Climbing Montreal Center
Tue 02:24:07 PM 46.0167 -72.3000 244° Southwest 130 150 7,000 650 Climbing Montreal Center
Tue 02:25:07 PM 46.0167 -72.3500 270° West 120 138 7,600 600 Climbing Montreal Center
Tue 02:26:07 PM 46.0000 -72.4000 244° Southwest 130 150 8,200 700 Climbing Montreal Center
Tue 02:27:07 PM 45.9833 -72.4500 244° Southwest 130 150 9,000 800 Climbing Montreal Center
Tue 02:28:07 PM 45.9667 -72.5000 244° Southwest 130 150 9,800 500 Climbing Montreal Center
Tue 02:29:07 PM 45.9667 -72.5500 270° West 120 138 10,000 100 Climbing Montreal Center
Tue 02:30:07 PM 45.9500 -72.5833 234° Southwest 130 150 10,000 450 Level Montreal Center
Tue 02:31:07 PM 45.9500 -72.6333 270° West 130 150 10,900 900 Climbing Montreal Center
Tue 02:32:07 PM 45.9333 -72.6833 244° Southwest 110 127 11,800 550 Climbing Montreal Center
Tue 02:33:07 PM 45.9333 -72.7333 270° West 110 127 12,000 100 Climbing Montreal Center
Tue 02:34:07 PM 45.9167 -72.7833 244° Southwest 130 150 12,000  Level Montreal Center
Tue 02:35:07 PM 45.9000 -72.8333 244° Southwest 140 161 12,000  Level Montreal Center
Tue 02:36:07 PM 45.8833 -72.8833 244° Southwest 150 173 12,000  Level Montreal Center
Tue 02:37:07 PM 45.8667 -72.9333 244° Southwest 150 173 12,000  Level Montreal Center
Tue 02:38:07 PM 45.8667 -73.0000 270° West 140 161 12,000  Level Montreal Center
Tue 02:39:07 PM 45.8500 -73.0500 244° Southwest 140 161 12,000  Level Montreal Center
Tue 02:40:07 PM 45.8333 -73.1000 244° Southwest 140 161 12,000  Level Montreal Center
Tue 02:41:07 PM 45.8167 -73.1500 244° Southwest 140 161 12,000  Level Montreal Center
Tue 02:42:07 PM 45.8167 -73.2000 270° West 140 161 12,000  Level Montreal Center
Tue 02:43:07 PM 45.8167 -73.2667 270° West 140 161 12,000  Level Montreal Center
Tue 02:44:07 PM 45.8000 -73.3167 244° Southwest 140 161 12,000  Level Montreal Center
Tue 02:45:07 PM 45.7833 -73.3667 244° Southwest 140 161 12,000  Level Montreal Center
Tue 02:46:07 PM 45.7667 -73.4167 244° Southwest 140 161 12,000  Level Montreal Center
Tue 02:47:07 PM 45.7667 -73.4667 270° West 150 173 12,000  Level Montreal Center
Tue 02:48:07 PM 45.7500 -73.5500 254° West 150 173 12,000  Level Montreal Center
Tue 02:49:07 PM 45.7333 -73.5833 234° Southwest 150 173 12,000  Level Montreal Center
Tue 02:50:07 PM 45.7167 -73.6333 244° Southwest 140 161 12,000  Level Montreal Center
Tue 02:51:07 PM 45.7000 -73.6833 245° Southwest 140 161 12,000  Level Montreal Center
Tue 02:52:07 PM 45.7000 -73.7333 270° West 140 161 12,000  Level Montreal Center
Tue 02:53:07 PM 45.6833 -73.8167 254° West 140 161 12,000 50 Level Montreal Center
Tue 02:54:07 PM 45.6667 -73.8500 234° Southwest 140 161 12,100  Climbing Montreal Center
Tue 02:55:07 PM 45.6500 -73.9000 245° Southwest 140 161 12,000 -50 Descending Montreal Center
Tue 02:56:07 PM 45.6333 -73.9500 245° Southwest 140 161 12,000  Level Montreal Center
Tue 02:57:07 PM 45.6333 -74.0000 270° West 140 161 12,000  Level Montreal Center
Tue 02:58:07 PM 45.6333 -74.0667 270° West 140 161 12,000  Level Montreal Center
Tue 02:59:07 PM 45.6167 -74.1167 245° Southwest 140 161 12,000  Level Montreal Center
Tue 03:00:07 PM 45.6000 -74.1667 245° Southwest 130 150 12,000 50 Level Montreal Center
Tue 03:01:07 PM 45.5833 -74.2167 245° Southwest 130 150 12,100  Climbing Montreal Center
Tue 03:02:07 PM 45.5667 -74.2667 245° Southwest 140 161 12,000 -50 Descending Montreal Center
Tue 03:03:07 PM 45.5500 -74.3167 245° Southwest 140 161 12,000  Level Montreal Center
Tue 03:04:07 PM 45.5333 -74.3667 245° Southwest 140 161 12,000  Level Montreal Center
Tue 03:05:07 PM 45.5167 -74.4167 245° Southwest 140 161 12,000  Level Montreal Center
Tue 03:06:07 PM 45.5000 -74.4833 250° West 140 161 12,000  Level Montreal Center
Tue 03:07:07 PM 45.5000 -74.5333 270° West 140 161 12,000  Level Montreal Center
Tue 03:08:07 PM 45.4833 -74.5833 245° Southwest 140 161 12,000  Level Montreal Center
Tue 03:09:07 PM 45.4833 -74.6333 270° West 140 161 12,000  Level Montreal Center
Tue 03:10:07 PM 45.4667 -74.7000 250° West 140 161 12,000 50 Level Montreal Center
Tue 03:11:07 PM 45.4667 -74.7500 270° West 140 161 12,100  Climbing Montreal Center
Tue 03:12:07 PM 45.4500 -74.8000 245° Southwest 140 161 12,000 -50 Descending Montreal Center
Tue 03:13:07 PM 45.4500 -74.8500 270° West 140 161 12,000  Level Montreal Center
Tue 03:14:07 PM 45.4333 -74.9167 250° West 140 161 12,000 -400 Level Montreal Center
Tue 03:15:07 PM 45.4333 -74.9667 270° West 160 184 11,200 -600 Descending Montreal Center
Tue 03:16:07 PM 45.4167 -75.0333 250° West 170 196 10,800 -500 Descending Montreal Center
Tue 03:17:07 PM 45.4000 -75.1167 254° West 170 196 10,200 -400 Descending Montreal Center
Tue 03:18:07 PM 45.4000 -75.1500 270° West 160 184 10,000 -100 Descending Montreal Center
Tue 03:19:07 PM 45.3833 -75.2333 254° West 150 173 10,000  Level Montreal Center
Tue 03:20:07 PM 45.3833 -75.2833 270° West 140 161 10,000  Level Montreal Center
Tue 03:21:07 PM 45.3667 -75.3500 250° West 150 173 10,000 50 Level Montreal Center
Tue 03:22:07 PM 45.3667 -75.4000 270° West 150 173 10,100 50 Climbing Montreal Center
Tue 03:23:07 PM 45.3500 -75.4500 245° Southwest 150 173 10,100  Level Montreal Center
Tue 03:24:07 PM 45.3500 -75.5167 270° West 150 173 10,100  Level Montreal Center
Tue 03:25:07 PM 45.3333 -75.5667 245° Southwest 150 173 10,100  Level Montreal Center
Tue 03:26:07 PM 45.3333 -75.6333 270° West 150 173 10,100  Level Montreal Center
Tue 03:27:07 PM 45.3167 -75.6833 245° Southwest 150 173 10,100  Level Montreal Center
Tue 03:28:07 PM 45.3167 -75.7333 270° West 150 173 10,100  Level Montreal Center
Tue 03:29:07 PM 45.3000 -75.8000 250° West 150 173 10,100  Level Montreal Center
Tue 03:30:07 PM 45.3000 -75.8500 270° West 150 173 10,100  Level Montreal Center
Tue 03:31:07 PM 45.2833 -75.9167 250° West 150 173 10,100  Level Montreal Center
Tue 03:32:07 PM 45.2833 -75.9667 270° West 150 173 10,100  Level Montreal Center
Tue 03:33:07 PM 45.2667 -76.0167 245° Southwest 150 173 10,100  Level Montreal Center
Tue 03:34:07 PM 45.2667 -76.0833 270° West 150 173 10,100  Level Montreal Center
Tue 03:35:07 PM 45.2500 -76.1333 245° Southwest 150 173 10,100  Level Montreal Center
Tue 03:36:07 PM 45.2333 -76.2000 250° West 150 173 10,100  Level Montreal Center
Tue 03:37:07 PM 45.2333 -76.2500 270° West 150 173 10,100  Level Montreal Center
Tue 03:38:07 PM 45.2167 -76.3000 245° Southwest 150 173 10,100  Level Montreal Center
Tue 03:39:07 PM 45.1833 -76.3500 227° Southwest 150 173 10,100  Level Montreal Center
Tue 03:40:07 PM 45.1667 -76.4167 250° West 150 173 10,100  Level Montreal Center
Tue 03:41:07 PM 45.1500 -76.4667 245° Southwest 150 173 10,100  Level Montreal Center
Tue 03:42:07 PM 45.1333 -76.5167 245° Southwest 150 173 10,100  Level Montreal Center
Tue 03:43:07 PM 45.1000 -76.5667 227° Southwest 150 173 10,100  Level Montreal Center
Tue 03:44:07 PM 45.0833 -76.6333 251° West 150 173 10,100  Level Montreal Center
Tue 03:45:07 PM 45.0667 -76.6833 245° Southwest 160 184 10,100  Level Montreal Center
Tue 03:46:07 PM 45.0500 -76.7333 245° Southwest 150 173 10,100  Level Montreal Center
Tue 03:47:07 PM 45.0167 -76.7667 215° Southwest 150 173 10,100  Level Montreal Center
Tue 03:48:07 PM 45.0000 -76.8500 254° West 150 173 10,100 50 Level Montreal Center
Tue 03:49:07 PM 44.9833 -76.8833 235° Southwest 150 173 10,200  Climbing Montreal Center
Tue 03:50:07 PM 44.9667 -76.9333 245° Southwest 160 184 10,100 -50 Descending Montreal Center
Tue 03:51:07 PM 44.9333 -76.9833 227° Southwest 160 184 10,100  Level Montreal Center
Tue 03:52:07 PM 44.9167 -77.0500 251° West 160 184 10,100  Level Montreal Center
Tue 03:53:07 PM 44.9000 -77.1000 245° Southwest 160 184 10,100  Level Montreal Center
Tue 03:54:07 PM 44.8833 -77.1500 245° Southwest 160 184 10,100  Level Montreal Center
Tue 03:55:07 PM 44.8667 -77.2167 251° West 150 173 10,100  Level Montreal Center
Tue 03:56:07 PM 44.8333 -77.2667 227° Southwest 160 184 10,100  Level Montreal Center
Tue 03:57:07 PM 44.8167 -77.3167 245° Southwest 150 173 10,100  Level Montreal Center
Tue 03:58:07 PM 44.8000 -77.3667 245° Southwest 150 173 10,100  Level Montreal Center
Tue 03:59:07 PM 44.7667 -77.4333 235° Southwest 150 173 10,100  Level Montreal Center
Tue 04:00:07 PM 44.7500 -77.4833 245° Southwest 150 173 10,100  Level Montreal Center
Tue 04:01:07 PM 44.7333 -77.5167 235° Southwest 150 173 10,100  Level Montreal Center
Tue 04:02:07 PM 44.7167 -77.5667 245° Southwest 150 173 10,100  Level Montreal Center
Tue 04:03:07 PM 44.7000 -77.6167 245° Southwest 150 173 10,100  Level Montreal Center
Tue 04:04:07 PM 44.6667 -77.6833 235° Southwest 160 184 10,100  Level Montreal Center
Tue 04:05:07 PM 44.6333 -77.7333 227° Southwest 160 184 10,100  Level Montreal Center
Tue 04:06:07 PM 44.6167 -77.7833 245° Southwest 160 184 10,100  Level Montreal Center
Tue 04:07:07 PM 44.6000 -77.8500 251° West 160 184 10,100  Level Montreal Center
Tue 04:08:07 PM 44.5667 -77.9000 227° Southwest 160 184 10,100  Level Montreal Center
Tue 04:09:07 PM 44.5500 -77.9333 235° Southwest 160 184 10,100  Level Montreal Center
Tue 04:10:07 PM 44.5333 -77.9833 245° Southwest 160 184 10,100 -50 Level Montreal Center
Tue 04:11:07 PM 44.5167 -78.0500 251° West 160 184 10,000 -50 Descending Montreal Center
Tue 04:12:07 PM 44.4833 -78.1000 227° Southwest 160 184 10,000  Level Montreal Center
Tue 04:13:07 PM 44.4667 -78.1667 251° West 160 184 10,000  Level Montreal Center
Tue 04:14:07 PM 44.4500 -78.2167 245° Southwest 150 173 10,000  Level Montreal Center
Tue 04:15:07 PM 44.4333 -78.2667 245° Southwest 160 184 10,000  Level Montreal Center
Tue 04:16:07 PM 44.4000 -78.3333 235° Southwest 160 184 10,000  Level Montreal Center
Tue 04:17:07 PM 44.3833 -78.3833 245° Southwest 160 184 10,000  Level Montreal Center
Tue 04:18:07 PM 44.3667 -78.4333 245° Southwest 160 184 10,000  Level Montreal Center
Tue 04:19:07 PM 44.3333 -78.4667 216° Southwest 160 184 10,000  Level Montreal Center
Tue 04:20:07 PM 44.3000 -78.5333 235° Southwest 160 184 10,000  Level Montreal Center
Tue 04:21:07 PM 44.2833 -78.5833 245° Southwest 160 184 10,000 -300 Level Montreal Center
Tue 04:22:07 PM 44.2500 -78.6500 235° Southwest 170 196 9,400 -600 Descending Montreal Center
Tue 04:23:07 PM 44.2333 -78.7000 245° Southwest 180 207 8,800 -800 Descending Montreal Center
Tue 04:24:07 PM 44.2167 -78.7667 251° West 180 207 7,800 -900 Descending Montreal Center
Tue 04:25:07 PM 44.1833 -78.8333 235° Southwest 180 207 7,000 -950 Descending Montreal Center
Tue 04:26:07 PM 44.1667 -78.8833 245° Southwest 180 207 5,900 -1,050 Descending Montreal Center
Tue 04:27:07 PM 44.1333 -78.9500 235° Southwest 190 219 4,900 -900 Descending Montreal Center
Tue 04:28:07 PM 44.1000 -79.0000 227° Southwest 180 207 4,100 -750 Descending Montreal Center
Tue 04:29:07 PM 44.0667 -79.0333 216° Southwest 190 219 3,400 -600 Descending Montreal Center
Tue 04:30:07 PM 44.0333 -79.1167 241° Southwest 180 207 2,900 -168 Descending Montreal Center
Tue 04:31:30 PM 44.0000 -79.1500 216° Southwest 150 173 3,000 42 Climbing Toronto Center
Tue 04:32:30 PM 43.9833 -79.2000 245° Southwest 150 173 3,000 -100 Level Toronto Center
Tue 04:33:30 PM 43.9667 -79.2333 235° Southwest 140 161 2,800 -450 Descending Toronto Center
Tue 04:34:30 PM 43.9333 -79.2833 227° Southwest 150 173 2,100 -400 Descending Toronto Center
Tue 04:35:30 PM 43.9167 -79.3333 245° Southwest 140 161 2,000 -150 Descending Toronto Center
Tue 04:36:30 PM 43.8833 -79.3500 200° South 120 138 1,800 -500 Descending Toronto Center
Tue 04:37:30 PM 43.8667 -79.3500 180° South 100 115 1,000 -800 Descending Toronto Center
Tue 04:39:00 PM 43.8500 -79.3667 227° Southwest  Level FlightAware Approximate

Login

Don't have an account? Register now (free) for customized features, flight alerts, and more!